Time;durP1;ratioP1;P1;durP2;ratioP2;P2;SDS_P1;SDS_P2;PMS_P1;PMS_P2;Temp;Humidity;BMP_temperature;BMP_pressure;BME280_temperature;BME280_humidity;BME280_pressure;Samples;Min_cycle;Max_cycle;Signal;HPM_P1;HPM_P2
2023/01/30 00:09:14;;;;;;;1.52;0.95;;;;;;;15.22;66.62;100892.03;20241688;29;20059;-89
2023/01/30 00:19:15;;;;;;;1.30;0.90;;;;;;;16.24;66.84;101004.03;20208611;29;20052;-90
2023/01/30 00:29:17;;;;;;;1.27;0.95;;;;;;;15.45;66.66;100840.25;20195543;29;20131;-90
2023/01/30 00:39:18;;;;;;;0.90;0.90;;;;;;;16.05;66.75;100932.13;20179300;29;20523;-89
2023/01/30 00:49:20;;;;;;;1.42;0.95;;;;;;;15.48;66.89;100805.97;20195342;29;20491;-90
2023/01/30 00:59:22;;;;;;;1.50;0.82;;;;;;;16.25;66.80;100886.66;20188812;29;20059;-90
2023/01/30 01:09:23;;;;;;;1.23;1.10;;;;;;;15.94;66.66;100835.47;20191254;29;20045;-90
2023/01/30 01:19:26;;;;;;;1.13;1.00;;;;;;;15.12;66.78;100691.75;20200338;29;20495;-90
2023/01/30 01:29:27;;;;;;;1.13;1.00;;;;;;;16.26;66.70;100874.94;20235375;29;20064;-89
2023/01/30 01:50:01;;;;;;;1.13;1.00;;;;;;;15.62;66.54;100755.72;20155668;29;20056;-89
2023/01/30 02:00:12;;;;;;;1.45;0.93;;;;;;;16.27;66.71;100840.88;20172196;29;20056;-89
2023/01/30 02:10:22;;;;;;;0.95;0.80;;;;;;;15.57;66.47;100720.34;20200661;29;20056;-89
2023/01/30 02:20:39;;;;;;;1.30;0.93;;;;;;;15.71;66.83;100743.38;20198329;29;20044;-90
2023/01/30 02:30:50;;;;;;;0.73;0.70;;;;;;;16.26;66.61;100820.38;20203788;29;20061;-89
2023/01/30 02:41:04;;;;;;;0.80;0.80;;;;;;;16.26;66.74;100818.53;20229260;29;20045;-90
2023/01/30 02:51:10;;;;;;;1.70;1.13;;;;;;;15.93;66.70;100737.13;20244733;29;20054;-89
2023/01/30 03:01:12;;;;;;;1.00;0.80;;;;;;;16.27;66.81;100803.28;20228545;29;20118;-89
2023/01/30 03:11:14;;;;;;;1.27;0.80;;;;;;;16.27;66.78;100795.22;20259887;29;20044;-90
2023/01/30 03:21:16;;;;;;;1.00;0.70;;;;;;;16.27;66.79;100804.13;20227377;29;20041;-89
2023/01/30 03:31:18;;;;;;;1.13;1.02;;;;;;;16.17;66.63;100787.06;20237219;29;20076;-89
2023/01/30 03:41:20;;;;;;;0.88;0.77;;;;;;;16.27;66.82;100792.53;20246307;29;20065;-90
2023/01/30 03:51:22;;;;;;;1.27;1.00;;;;;;;15.80;66.59;100724.66;20213696;29;20059;-89
2023/01/30 04:01:23;;;;;;;0.68;0.68;;;;;;;16.16;66.49;100791.59;20212166;29;20307;-90
2023/01/30 04:11:25;;;;;;;1.25;0.80;;;;;;;15.79;66.63;100725.63;20227071;29;20108;-90
2023/01/30 04:21:27;;;;;;;1.35;1.00;;;;;;;15.01;66.95;100590.72;20243571;29;20061;-89
2023/01/30 04:31:29;;;;;;;0.88;0.70;;;;;;;16.16;66.84;100780.00;20225071;29;20048;-89
2023/01/30 04:41:36;;;;;;;0.73;0.65;;;;;;;15.71;66.83;100725.44;20209506;29;20058;-89
2023/01/30 04:51:38;;;;;;;0.98;0.73;;;;;;;16.15;66.81;100792.59;20208497;29;20496;-90
2023/01/30 05:01:40;;;;;;;1.20;0.70;;;;;;;16.25;66.57;100822.19;20208535;29;20281;-90
2023/01/30 05:11:41;;;;;;;1.52;0.85;;;;;;;15.37;66.64;100683.44;20222252;29;20103;-89
2023/01/30 05:21:43;;;;;;;1.17;0.80;;;;;;;15.97;66.77;100770.78;20222224;29;20072;-89
2023/01/30 05:31:45;;;;;;;0.80;0.65;;;;;;;16.25;66.68;100824.88;20206087;29;20055;-89
2023/01/30 05:41:46;;;;;;;0.68;0.68;;;;;;;16.25;66.61;100819.50;20205275;29;20052;-90
2023/01/30 05:51:48;;;;;;;0.68;0.68;;;;;;;15.71;66.45;100738.84;20203103;29;20060;-89
2023/01/30 06:01:52;;;;;;;0.70;0.70;;;;;;;15.78;66.71;100739.22;20228927;29;20410;-90
2023/01/30 06:11:54;;;;;;;0.85;0.60;;;;;;;15.56;66.58;100724.00;20190417;29;20052;-87
2023/01/30 06:21:56;;;;;;;0.90;0.80;;;;;;;16.24;66.89;100818.66;20199530;29;20053;-90
2023/01/30 06:31:57;;;;;;;0.60;0.50;;;;;;;15.68;66.59;100743.59;20188645;29;20059;-90
2023/01/30 06:41:59;;;;;;;1.00;0.65;;;;;;;16.24;66.72;100841.97;20187236;29;20140;-85
2023/01/30 06:52:00;;;;;;;1.27;0.60;;;;;;;16.24;66.73;100816.00;20167255;29;20064;-85
2023/01/30 07:02:02;;;;;;;0.73;0.63;;;;;;;15.77;66.56;100762.50;20225593;29;20052;-85
2023/01/30 07:12:04;;;;;;;2.33;0.80;;;;;;;16.23;66.47;100840.28;20228351;29;20476;-85
2023/01/30 07:22:05;;;;;;;0.73;0.60;;;;;;;16.24;66.75;100858.09;20218488;29;20060;-89
2023/01/30 07:32:12;;;;;;;0.68;0.52;;;;;;;16.04;66.43;100831.06;20302252;29;20063;-89
2023/01/30 07:42:14;;;;;;;1.60;0.82;;;;;;;16.14;66.70;100854.47;20244881;29;20048;-89
2023/01/30 07:52:16;;;;;;;1.50;0.70;;;;;;;16.00;66.42;100818.00;20229432;29;20112;-89
2023/01/30 08:02:17;;;;;;;1.55;0.85;;;;;;;16.24;66.51;100868.84;20244962;29;20448;-88
2023/01/30 08:12:19;;;;;;;0.68;0.43;;;;;;;16.25;66.50;100875.91;20231223;29;20055;-89
2023/01/30 08:22:20;;;;;;;1.70;0.95;;;;;;;16.24;66.67;100895.69;20234641;29;20076;-88
2023/01/30 08:32:22;;;;;;;0.57;0.57;;;;;;;16.14;66.71;100857.16;20220335;29;20056;-87
2023/01/30 08:42:23;;;;;;;0.73;0.70;;;;;;;16.11;66.49;100862.78;20195705;29;20108;-86
2023/01/30 08:52:25;;;;;;;1.35;0.77;;;;;;;16.24;66.47;100891.19;20191985;29;20052;-88
2023/01/30 09:02:26;;;;;;;1.42;0.70;;;;;;;16.14;66.43;100878.63;20181559;29;20525;-86
2023/01/30 09:12:28;;;;;;;1.08;0.68;;;;;;;16.24;66.40;100879.59;20196129;29;20060;-87
2023/01/30 09:22:29;;;;;;;0.75;0.70;;;;;;;16.25;66.47;100881.28;20196642;29;20805;-90
2023/01/30 09:32:31;;;;;;;1.90;0.70;;;;;;;16.27;66.40;100887.38;20197045;29;20057;-88
2023/01/30 09:42:49;;;;;;;1.70;0.93;;;;;;;16.30;66.36;100897.88;20210537;29;20056;-90
2023/01/30 09:53:00;;;;;;;2.63;1.00;;;;;;;15.37;66.39;100736.22;20234429;29;20454;-90
2023/01/30 10:03:07;;;;;;;2.47;0.60;;;;;;;16.31;66.32;100883.47;20191850;29;20053;-94
2023/01/30 10:13:40;;;;;;;3.47;0.90;;;;;;;16.30;66.28;100881.75;20195908;29;20044;-89
2023/01/30 10:23:58;;;;;;;1.50;0.77;;;;;;;16.29;66.22;100925.72;20215709;29;20082;-93
2023/01/30 10:34:03;;;;;;;1.77;0.80;;;;;;;16.27;66.46;100927.69;20187649;29;20526;-91
2023/01/30 10:44:08;;;;;;;2.08;0.80;;;;;;;15.89;66.46;100834.97;20249133;29;20063;-91
2023/01/30 10:54:25;;;;;;;2.03;0.68;;;;;;;15.83;66.40;100817.53;20215748;29;20049;-89
2023/01/30 11:04:33;;;;;;;2.15;1.00;;;;;;;16.31;66.30;100939.06;20213838;29;20056;-96
2023/01/30 11:14:51;;;;;;;2.30;0.68;;;;;;;15.90;66.22;100906.50;20219397;29;20048;-93
2023/01/30 11:25:03;;;;;;;1.48;0.73;;;;;;;16.31;66.24;100993.63;20240187;29;20435;-95
2023/01/30 11:35:07;;;;;;;3.05;0.75;;;;;;;16.31;66.47;100987.41;20213824;29;20424;-94
2023/01/30 11:45:10;;;;;;;2.13;0.80;;;;;;;16.30;66.20;100999.97;20234334;29;20056;-93
2023/01/30 11:55:19;;;;;;;2.38;0.80;;;;;;;16.31;66.40;101019.66;20234086;29;20052;-94
2023/01/30 12:05:24;;;;;;;1.90;0.70;;;;;;;16.30;66.39;101036.75;20205444;29;20140;-83
2023/01/30 12:15:28;;;;;;;2.80;1.13;;;;;;;16.23;66.28;101031.00;20227211;29;20430;-92
2023/01/30 12:25:54;;;;;;;1.98;0.63;;;;;;;16.31;66.31;101049.19;20201166;29;20100;-87
2023/01/30 12:36:05;;;;;;;2.90;1.17;;;;;;;16.31;66.30;101068.84;20181460;29;20137;-88
2023/01/30 12:46:25;;;;;;;2.35;0.73;;;;;;;16.30;66.31;101067.13;20174393;29;20143;-90
2023/01/30 12:56:48;;;;;;;2.53;1.10;;;;;;;16.32;66.27;101075.94;20194980;29;20393;-87
2023/01/30 13:07:07;;;;;;;2.25;0.98;;;;;;;16.32;66.42;101085.84;20179704;29;20771;-88
2023/01/30 13:17:14;;;;;;;2.10;0.73;;;;;;;16.07;66.46;101056.38;20196089;29;20108;-88
2023/01/30 13:27:18;;;;;;;2.25;0.80;;;;;;;16.28;66.60;101106.69;20199780;29;20112;-83
2023/01/30 13:37:20;;;;;;;7.17;0.90;;;;;;;16.33;66.69;101130.53;20216138;29;20723;-89
2023/01/30 13:47:31;;;;;;;2.92;1.00;;;;;;;16.31;66.31;101149.44;20226568;29;20475;-85
2023/01/30 13:57:56;;;;;;;2.72;0.90;;;;;;;16.32;66.43;101166.44;20219957;29;20155;-86
2023/01/30 14:07:57;;;;;;;2.20;0.60;;;;;;;16.31;66.50;101195.13;20181372;29;20060;-89
2023/01/30 14:18:18;;;;;;;2.33;0.77;;;;;;;16.30;66.41;101212.22;20176699;29;20048;-87
2023/01/30 14:28:20;;;;;;;2.45;0.77;;;;;;;16.31;66.50;101231.91;20181266;29;20404;-83
2023/01/30 14:38:21;;;;;;;1.88;0.68;;;;;;;16.30;66.44;101247.13;20190487;29;20056;-81
2023/01/30 14:48:28;;;;;;;3.08;0.90;;;;;;;16.12;66.42;101251.25;20160850;29;20468;-83
2023/01/30 14:58:30;;;;;;;1.55;0.65;;;;;;;16.30;66.38;101287.44;20182934;29;20131;-86
2023/01/30 15:08:31;;;;;;;3.00;0.80;;;;;;;16.29;66.63;101304.53;20206036;29;20154;-88
2023/01/30 15:18:50;;;;;;;2.55;0.75;;;;;;;16.29;66.51;101326.03;20223799;29;20415;-88
2023/01/30 15:28:58;;;;;;;2.20;0.88;;;;;;;16.29;66.41;101341.31;20220392;29;20049;-87
2023/01/30 15:39:03;;;;;;;1.85;0.82;;;;;;;16.27;66.59;101376.34;20204904;29;20048;-86
2023/01/30 15:49:41;;;;;;;2.10;0.70;;;;;;;15.87;66.33;101333.59;20167312;29;20056;-85
2023/01/30 15:59:43;;;;;;;1.58;0.70;;;;;;;15.88;66.59;101372.91;20208287;29;20059;-91
2023/01/30 16:09:53;;;;;;;1.70;0.75;;;;;;;15.90;66.23;101398.69;20202418;29;20044;-91
2023/01/30 16:20:11;;;;;;;1.40;0.70;;;;;;;16.13;66.42;101444.53;20226840;29;20052;-91
2023/01/30 16:30:20;;;;;;;1.98;0.70;;;;;;;16.25;66.31;101477.69;20189220;29;20097;-91
2023/01/30 16:40:25;;;;;;;1.58;0.52;;;;;;;16.26;66.35;101495.53;20177087;29;20052;-90
2023/01/30 16:50:26;;;;;;;1.50;0.60;;;;;;;15.74;66.05;101441.03;20200002;29;20049;-87
2023/01/30 17:00:33;;;;;;;2.95;0.77;;;;;;;16.24;66.37;101540.44;20198077;29;20591;-86
2023/01/30 17:10:40;;;;;;;1.65;0.77;;;;;;;16.23;66.20;101565.59;20170168;29;20052;-86
2023/01/30 17:20:46;;;;;;;2.13;0.80;;;;;;;16.22;66.25;101586.25;20160477;29;20060;-86
2023/01/30 17:30:48;;;;;;;1.27;0.50;;;;;;;16.23;66.13;101600.53;20143134;29;20410;-85
2023/01/30 17:40:50;;;;;;;2.97;1.02;;;;;;;16.20;66.46;101604.31;20130827;29;20053;-85
2023/01/30 17:50:52;;;;;;;2.05;0.63;;;;;;;16.18;66.08;101616.97;20144033;29;20212;-85
2023/01/30 18:00:53;;;;;;;2.13;0.73;;;;;;;16.21;66.11;101632.88;20134268;29;20078;-88
2023/01/30 18:10:55;;;;;;;1.48;0.70;;;;;;;16.20;66.23;101636.53;20174593;29;20081;-87
2023/01/30 18:20:56;;;;;;;0.70;0.50;;;;;;;16.21;66.35;101640.06;20196998;29;20060;-86
2023/01/30 18:30:59;;;;;;;1.85;0.77;;;;;;;16.20;66.42;101649.09;20191012;29;20523;-89
2023/01/30 18:41:18;;;;;;;2.67;1.13;;;;;;;16.20;66.62;101665.22;20227664;29;20608;-90
2023/01/30 18:51:22;;;;;;;4.18;1.00;;;;;;;16.21;66.64;101696.50;20202255;29;20053;-89
2023/01/30 19:01:25;;;;;;;1.33;0.60;;;;;;;16.10;66.65;101673.03;20216496;29;20052;-87
2023/01/30 19:21:50;;;;;;;1.48;0.60;;;;;;;16.09;66.61;101699.06;20247231;29;20080;-87
2023/01/30 19:31:52;;;;;;;1.67;0.77;;;;;;;16.18;66.72;101728.94;20236947;29;20511;-83
2023/01/30 19:41:54;;;;;;;2.00;0.70;;;;;;;16.18;66.56;101739.69;20220562;29;20049;-85
2023/01/30 19:52:00;;;;;;;2.08;0.70;;;;;;;16.18;66.61;101745.94;20245481;29;20326;-85
2023/01/30 20:02:02;;;;;;;1.40;0.70;;;;;;;16.17;66.79;101736.16;20245914;29;20131;-85
2023/01/30 20:12:04;;;;;;;2.20;0.93;;;;;;;16.17;66.70;101743.34;20243348;29;20056;-85
2023/01/30 20:22:07;;;;;;;3.20;0.77;;;;;;;16.17;66.74;101751.41;20211418;29;20087;-85
2023/01/30 20:32:08;;;;;;;1.83;0.82;;;;;;;16.17;66.85;101743.34;20227189;29;20048;-85
2023/01/30 20:42:11;;;;;;;0.93;0.45;;;;;;;16.17;66.70;101754.97;20240689;29;20060;-85
2023/01/30 20:52:13;;;;;;;1.85;0.70;;;;;;;16.13;66.80;101758.81;20242156;29;20056;-85
2023/01/30 21:02:14;;;;;;;1.92;0.68;;;;;;;16.05;66.60;101759.34;20224030;29;20049;-85
2023/01/30 21:12:16;;;;;;;1.45;0.45;;;;;;;15.97;66.68;101748.25;20223106;29;20467;-85
2023/01/30 21:22:17;;;;;;;1.35;0.50;;;;;;;15.94;66.74;101743.94;20206684;29;20064;-85
2023/01/30 21:32:19;;;;;;;0.65;0.45;;;;;;;16.18;66.74;101793.41;20238308;29;20538;-85
2023/01/30 21:52:41;;;;;;;1.58;0.70;;;;;;;16.18;66.58;101788.94;20237407;29;20304;-84
2023/01/30 22:02:42;;;;;;;1.23;0.50;;;;;;;15.96;66.77;101751.91;20219993;29;20056;-85
2023/01/30 22:12:44;;;;;;;2.30;0.60;;;;;;;16.18;66.72;101788.03;20236730;29;20053;-85
2023/01/30 22:22:46;;;;;;;1.17;0.57;;;;;;;16.19;66.58;101795.13;20218778;29;20084;-85
2023/01/30 22:32:47;;;;;;;0.88;0.40;;;;;;;16.17;66.65;101803.31;20235314;29;20056;-84
2023/01/30 22:42:49;;;;;;;1.05;0.55;;;;;;;16.18;66.85;101815.78;20250113;29;20052;-85
2023/01/30 22:52:50;;;;;;;1.20;0.52;;;;;;;16.17;66.63;101819.44;20233998;29;20104;-85
2023/01/30 23:02:52;;;;;;;1.42;0.60;;;;;;;16.18;66.82;101839.97;20249033;29;20503;-85
2023/01/30 23:13:05;;;;;;;2.22;1.02;;;;;;;16.18;66.67;101842.66;20248991;29;20464;-85
2023/01/30 23:23:07;;;;;;;0.85;0.55;;;;;;;16.19;66.66;101854.25;20248266;29;20052;-85
2023/01/30 23:33:08;;;;;;;1.40;0.50;;;;;;;16.07;66.79;101835.28;20247553;29;20546;-85
2023/01/30 23:43:10;;;;;;;1.02;0.55;;;;;;;16.19;66.67;101833.63;20246207;29;20059;-84
2023/01/30 23:53:11;;;;;;;1.15;0.50;;;;;;;16.18;66.54;101836.41;20246619;29;20052;-85
